sensor_id;sensor_type;location;lat;lon;timestamp;temperature;humidity
40287;DHT22;25998;46.604;13.610;2022-12-18T00:00:18;0.90;99.90
40287;DHT22;25998;46.604;13.610;2022-12-18T00:03:29;0.90;99.90
40287;DHT22;25998;46.604;13.610;2022-12-18T00:06:40;0.80;99.90
40287;DHT22;25998;46.604;13.610;2022-12-18T00:09:51;1.00;99.90
40287;DHT22;25998;46.604;13.610;2022-12-18T00:13:01;1.20;99.90
40287;DHT22;25998;46.604;13.610;2022-12-18T00:16:15;1.10;99.90
40287;DHT22;25998;46.604;13.610;2022-12-18T00:19:26;1.00;99.90
40287;DHT22;25998;46.604;13.610;2022-12-18T00:22:37;1.00;99.90
40287;DHT22;25998;46.604;13.610;2022-12-18T00:25:48;0.90;99.90
40287;DHT22;25998;46.604;13.610;2022-12-18T00:29:01;0.90;99.90
40287;DHT22;25998;46.604;13.610;2022-12-18T00:32:12;0.80;99.90
40287;DHT22;25998;46.604;13.610;2022-12-18T00:35:23;0.90;99.90
40287;DHT22;25998;46.604;13.610;2022-12-18T00:38:34;0.90;99.90
40287;DHT22;25998;46.604;13.610;2022-12-18T00:41:45;0.90;99.90
40287;DHT22;25998;46.604;13.610;2022-12-18T00:45:15;0.90;99.90
40287;DHT22;25998;46.604;13.610;2022-12-18T00:48:25;0.90;99.90
40287;DHT22;25998;46.604;13.610;2022-12-18T00:51:36;0.80;99.90
40287;DHT22;25998;46.604;13.610;2022-12-18T00:54:47;0.80;99.90
40287;DHT22;25998;46.604;13.610;2022-12-18T00:57:58;0.90;99.90
40287;DHT22;25998;46.604;13.610;2022-12-18T01:01:08;0.90;99.90
40287;DHT22;25998;46.604;13.610;2022-12-18T01:04:19;1.00;99.90
40287;DHT22;25998;46.604;13.610;2022-12-18T01:07:30;1.10;99.90
40287;DHT22;25998;46.604;13.610;2022-12-18T01:10:41;1.00;99.90
40287;DHT22;25998;46.604;13.610;2022-12-18T01:13:53;1.00;99.90
40287;DHT22;25998;46.604;13.610;2022-12-18T01:17:04;1.10;99.90
40287;DHT22;25998;46.604;13.610;2022-12-18T01:20:15;1.00;99.90
40287;DHT22;25998;46.604;13.610;2022-12-18T01:23:26;1.00;99.90
40287;DHT22;25998;46.604;13.610;2022-12-18T01:26:37;1.00;99.90
40287;DHT22;25998;46.604;13.610;2022-12-18T01:29:48;0.90;99.90
40287;DHT22;25998;46.604;13.610;2022-12-18T01:32:59;0.90;99.90
40287;DHT22;25998;46.604;13.610;2022-12-18T01:39:32;0.90;99.90
40287;DHT22;25998;46.604;13.610;2022-12-18T01:42:43;0.90;99.90
40287;DHT22;25998;46.604;13.610;2022-12-18T01:45:54;0.80;99.90
40287;DHT22;25998;46.604;13.610;2022-12-18T01:49:04;1.00;99.90
40287;DHT22;25998;46.604;13.610;2022-12-18T01:52:17;0.80;99.90
40287;DHT22;25998;46.604;13.610;2022-12-18T01:55:32;0.80;99.90
40287;DHT22;25998;46.604;13.610;2022-12-18T02:02:07;0.80;99.90
40287;DHT22;25998;46.604;13.610;2022-12-18T02:05:40;0.80;99.90
40287;DHT22;25998;46.604;13.610;2022-12-18T02:12:22;0.70;99.90
40287;DHT22;25998;46.604;13.610;2022-12-18T02:18:51;0.70;99.90
40287;DHT22;25998;46.604;13.610;2022-12-18T02:22:17;0.70;99.90
40287;DHT22;25998;46.604;13.610;2022-12-18T02:30:01;1.00;99.90
40287;DHT22;25998;46.604;13.610;2022-12-18T02:32:54;1.00;99.90
40287;DHT22;25998;46.604;13.610;2022-12-18T02:36:08;1.00;99.90
40287;DHT22;25998;46.604;13.610;2022-12-18T02:39:21;0.90;99.90
40287;DHT22;25998;46.604;13.610;2022-12-18T02:42:32;0.70;99.90
40287;DHT22;25998;46.604;13.610;2022-12-18T02:45:49;0.70;99.90
40287;DHT22;25998;46.604;13.610;2022-12-18T02:52:52;1.00;99.90
40287;DHT22;25998;46.604;13.610;2022-12-18T02:56:11;1.10;99.90
40287;DHT22;25998;46.604;13.610;2022-12-18T02:59:32;1.00;99.90
40287;DHT22;25998;46.604;13.610;2022-12-18T03:03:28;0.90;99.90
40287;DHT22;25998;46.604;13.610;2022-12-18T03:06:37;0.80;99.90
40287;DHT22;25998;46.604;13.610;2022-12-18T03:09:51;0.80;99.90
40287;DHT22;25998;46.604;13.610;2022-12-18T03:13:11;0.80;99.90
40287;DHT22;25998;46.604;13.610;2022-12-18T03:16:27;0.90;99.90
40287;DHT22;25998;46.604;13.610;2022-12-18T03:19:40;1.00;99.90
40287;DHT22;25998;46.604;13.610;2022-12-18T03:22:59;0.80;99.90
40287;DHT22;25998;46.604;13.610;2022-12-18T03:26:16;0.60;99.90
40287;DHT22;25998;46.604;13.610;2022-12-18T03:29:35;0.70;99.90
40287;DHT22;25998;46.604;13.610;2022-12-18T03:33:25;0.80;99.90
40287;DHT22;25998;46.604;13.610;2022-12-18T03:36:38;0.90;99.90
40287;DHT22;25998;46.604;13.610;2022-12-18T03:39:49;1.10;99.90
40287;DHT22;25998;46.604;13.610;2022-12-18T03:43:08;1.10;99.90
40287;DHT22;25998;46.604;13.610;2022-12-18T03:46:28;1.20;99.90
40287;DHT22;25998;46.604;13.610;2022-12-18T03:49:56;1.10;99.90
40287;DHT22;25998;46.604;13.610;2022-12-18T03:53:28;1.10;99.90
40287;DHT22;25998;46.604;13.610;2022-12-18T03:56:46;0.90;99.90
40287;DHT22;25998;46.604;13.610;2022-12-18T04:00:18;0.80;99.90
40287;DHT22;25998;46.604;13.610;2022-12-18T04:03:31;0.80;99.90
40287;DHT22;25998;46.604;13.610;2022-12-18T04:06:43;0.90;99.90
40287;DHT22;25998;46.604;13.610;2022-12-18T04:09:56;0.90;99.90
40287;DHT22;25998;46.604;13.610;2022-12-18T04:13:09;0.80;99.90
40287;DHT22;25998;46.604;13.610;2022-12-18T04:16:20;0.90;99.90
40287;DHT22;25998;46.604;13.610;2022-12-18T04:19:31;1.00;99.90
40287;DHT22;25998;46.604;13.610;2022-12-18T04:22:42;1.00;99.90
40287;DHT22;25998;46.604;13.610;2022-12-18T04:25:53;1.10;99.90
40287;DHT22;25998;46.604;13.610;2022-12-18T04:29:04;1.10;99.90
40287;DHT22;25998;46.604;13.610;2022-12-18T04:32:15;1.00;99.90
40287;DHT22;25998;46.604;13.610;2022-12-18T04:35:25;1.10;99.90
40287;DHT22;25998;46.604;13.610;2022-12-18T04:38:36;1.10;99.90
40287;DHT22;25998;46.604;13.610;2022-12-18T04:41:47;1.00;99.90
40287;DHT22;25998;46.604;13.610;2022-12-18T04:44:58;1.00;99.90
40287;DHT22;25998;46.604;13.610;2022-12-18T04:48:09;1.10;99.90
40287;DHT22;25998;46.604;13.610;2022-12-18T04:51:19;1.10;99.90
40287;DHT22;25998;46.604;13.610;2022-12-18T04:54:30;1.10;99.90
40287;DHT22;25998;46.604;13.610;2022-12-18T04:57:41;0.80;99.90
40287;DHT22;25998;46.604;13.610;2022-12-18T05:00:52;0.80;99.90
40287;DHT22;25998;46.604;13.610;2022-12-18T05:04:03;0.90;99.90
40287;DHT22;25998;46.604;13.610;2022-12-18T05:07:14;0.70;99.90
40287;DHT22;25998;46.604;13.610;2022-12-18T05:10:25;0.70;99.90
40287;DHT22;25998;46.604;13.610;2022-12-18T05:13:36;0.60;99.90
40287;DHT22;25998;46.604;13.610;2022-12-18T05:16:48;0.60;99.90
40287;DHT22;25998;46.604;13.610;2022-12-18T05:19:59;0.70;99.90
40287;DHT22;25998;46.604;13.610;2022-12-18T05:23:10;0.70;99.90
40287;DHT22;25998;46.604;13.610;2022-12-18T05:26:21;0.80;99.90
40287;DHT22;25998;46.604;13.610;2022-12-18T05:29:31;0.60;99.90
40287;DHT22;25998;46.604;13.610;2022-12-18T05:32:42;0.70;99.90
40287;DHT22;25998;46.604;13.610;2022-12-18T05:35:58;0.90;99.90
40287;DHT22;25998;46.604;13.610;2022-12-18T05:39:09;1.10;99.90
40287;DHT22;25998;46.604;13.610;2022-12-18T05:42:20;1.00;99.90
40287;DHT22;25998;46.604;13.610;2022-12-18T05:45:31;0.90;99.90
40287;DHT22;25998;46.604;13.610;2022-12-18T05:48:43;1.00;99.90
40287;DHT22;25998;46.604;13.610;2022-12-18T05:51:54;1.00;99.90
40287;DHT22;25998;46.604;13.610;2022-12-18T05:55:05;0.70;99.90
40287;DHT22;25998;46.604;13.610;2022-12-18T05:58:16;0.70;99.90
40287;DHT22;25998;46.604;13.610;2022-12-18T06:01:27;0.80;99.90
40287;DHT22;25998;46.604;13.610;2022-12-18T06:04:38;1.00;99.90
40287;DHT22;25998;46.604;13.610;2022-12-18T06:07:48;1.10;99.90
40287;DHT22;25998;46.604;13.610;2022-12-18T06:10:59;0.80;99.90
40287;DHT22;25998;46.604;13.610;2022-12-18T06:14:10;0.70;99.90
40287;DHT22;25998;46.604;13.610;2022-12-18T06:17:21;0.60;99.90
40287;DHT22;25998;46.604;13.610;2022-12-18T06:20:32;0.70;99.90
40287;DHT22;25998;46.604;13.610;2022-12-18T06:23:43;0.80;99.90
40287;DHT22;25998;46.604;13.610;2022-12-18T06:26:54;0.90;99.90
40287;DHT22;25998;46.604;13.610;2022-12-18T06:30:05;0.80;99.90
40287;DHT22;25998;46.604;13.610;2022-12-18T06:33:16;0.90;99.90
40287;DHT22;25998;46.604;13.610;2022-12-18T06:36:27;1.00;99.90
40287;DHT22;25998;46.604;13.610;2022-12-18T06:39:40;1.10;99.90
40287;DHT22;25998;46.604;13.610;2022-12-18T06:42:50;1.00;99.90
40287;DHT22;25998;46.604;13.610;2022-12-18T06:46:02;1.00;99.90
40287;DHT22;25998;46.604;13.610;2022-12-18T06:49:13;0.80;99.90
40287;DHT22;25998;46.604;13.610;2022-12-18T06:52:24;0.80;99.90
40287;DHT22;25998;46.604;13.610;2022-12-18T06:55:35;0.70;99.90
40287;DHT22;25998;46.604;13.610;2022-12-18T06:58:45;0.70;99.90
40287;DHT22;25998;46.604;13.610;2022-12-18T07:01:56;0.80;99.90
40287;DHT22;25998;46.604;13.610;2022-12-18T07:05:07;0.70;99.90
40287;DHT22;25998;46.604;13.610;2022-12-18T07:08:18;0.90;99.90
40287;DHT22;25998;46.604;13.610;2022-12-18T07:11:29;1.00;99.90
40287;DHT22;25998;46.604;13.610;2022-12-18T07:14:40;1.00;99.90
40287;DHT22;25998;46.604;13.610;2022-12-18T07:17:50;1.00;99.90
40287;DHT22;25998;46.604;13.610;2022-12-18T07:21:06;1.10;99.90
40287;DHT22;25998;46.604;13.610;2022-12-18T07:24:17;1.20;99.90
40287;DHT22;25998;46.604;13.610;2022-12-18T07:27:28;1.20;99.90
40287;DHT22;25998;46.604;13.610;2022-12-18T07:30:39;1.30;99.90
40287;DHT22;25998;46.604;13.610;2022-12-18T07:33:50;1.30;99.90
40287;DHT22;25998;46.604;13.610;2022-12-18T07:37:01;1.10;99.90
40287;DHT22;25998;46.604;13.610;2022-12-18T07:40:12;1.10;99.90
40287;DHT22;25998;46.604;13.610;2022-12-18T07:43:23;1.10;99.90
40287;DHT22;25998;46.604;13.610;2022-12-18T07:46:34;1.00;99.90
40287;DHT22;25998;46.604;13.610;2022-12-18T07:49:45;1.20;99.90
40287;DHT22;25998;46.604;13.610;2022-12-18T07:52:56;1.30;99.90
40287;DHT22;25998;46.604;13.610;2022-12-18T07:56:11;1.40;99.90
40287;DHT22;25998;46.604;13.610;2022-12-18T07:59:22;1.50;99.90
40287;DHT22;25998;46.604;13.610;2022-12-18T08:02:33;1.40;99.90
40287;DHT22;25998;46.604;13.610;2022-12-18T08:05:44;1.40;99.90
40287;DHT22;25998;46.604;13.610;2022-12-18T08:08:56;1.40;99.90
40287;DHT22;25998;46.604;13.610;2022-12-18T08:12:07;1.40;99.90
40287;DHT22;25998;46.604;13.610;2022-12-18T08:15:18;1.50;99.90
40287;DHT22;25998;46.604;13.610;2022-12-18T08:18:29;1.50;99.90
40287;DHT22;25998;46.604;13.610;2022-12-18T08:21:41;1.50;99.90
40287;DHT22;25998;46.604;13.610;2022-12-18T08:24:52;1.50;99.90
40287;DHT22;25998;46.604;13.610;2022-12-18T08:28:03;1.50;99.90
40287;DHT22;25998;46.604;13.610;2022-12-18T08:31:14;1.50;99.90
40287;DHT22;25998;46.604;13.610;2022-12-18T08:34:25;1.60;99.90
40287;DHT22;25998;46.604;13.610;2022-12-18T08:37:36;1.60;99.90
40287;DHT22;25998;46.604;13.610;2022-12-18T08:40:46;1.50;99.90
40287;DHT22;25998;46.604;13.610;2022-12-18T08:43:57;1.50;99.90
40287;DHT22;25998;46.604;13.610;2022-12-18T08:47:27;1.50;99.90
40287;DHT22;25998;46.604;13.610;2022-12-18T08:50:37;1.50;99.90
40287;DHT22;25998;46.604;13.610;2022-12-18T08:53:48;1.50;99.90
40287;DHT22;25998;46.604;13.610;2022-12-18T08:56:59;1.50;99.90
40287;DHT22;25998;46.604;13.610;2022-12-18T09:00:11;1.50;99.90
40287;DHT22;25998;46.604;13.610;2022-12-18T09:03:23;1.50;99.90
40287;DHT22;25998;46.604;13.610;2022-12-18T09:06:34;1.60;99.90
40287;DHT22;25998;46.604;13.610;2022-12-18T09:09:45;1.60;99.90
40287;DHT22;25998;46.604;13.610;2022-12-18T09:12:57;1.70;99.90
40287;DHT22;25998;46.604;13.610;2022-12-18T09:16:08;1.80;99.90
40287;DHT22;25998;46.604;13.610;2022-12-18T09:19:19;1.80;99.90
40287;DHT22;25998;46.604;13.610;2022-12-18T09:22:30;1.80;99.90
40287;DHT22;25998;46.604;13.610;2022-12-18T09:25:41;2.00;99.90
40287;DHT22;25998;46.604;13.610;2022-12-18T09:28:52;2.10;99.90
40287;DHT22;25998;46.604;13.610;2022-12-18T09:32:03;2.10;99.90
40287;DHT22;25998;46.604;13.610;2022-12-18T09:35:14;2.30;99.90
40287;DHT22;25998;46.604;13.610;2022-12-18T09:38:25;2.30;99.90
40287;DHT22;25998;46.604;13.610;2022-12-18T09:44:53;2.20;99.90
40287;DHT22;25998;46.604;13.610;2022-12-18T09:48:08;2.10;99.90
40287;DHT22;25998;46.604;13.610;2022-12-18T09:51:49;2.10;99.90
40287;DHT22;25998;46.604;13.610;2022-12-18T09:55:11;2.30;99.90
40287;DHT22;25998;46.604;13.610;2022-12-18T10:01:45;2.50;99.90
40287;DHT22;25998;46.604;13.610;2022-12-18T10:05:07;2.50;99.90
40287;DHT22;25998;46.604;13.610;2022-12-18T10:15:21;2.50;99.90
40287;DHT22;25998;46.604;13.610;2022-12-18T10:26:16;2.50;99.90
40287;DHT22;25998;46.604;13.610;2022-12-18T10:29:27;2.50;99.90
40287;DHT22;25998;46.604;13.610;2022-12-18T10:32:38;2.50;99.90
40287;DHT22;25998;46.604;13.610;2022-12-18T10:35:53;2.50;99.90
40287;DHT22;25998;46.604;13.610;2022-12-18T10:39:20;2.50;99.90
40287;DHT22;25998;46.604;13.610;2022-12-18T10:42:32;2.50;99.90
40287;DHT22;25998;46.604;13.610;2022-12-18T10:46:19;2.60;99.90
40287;DHT22;25998;46.604;13.610;2022-12-18T10:49:35;2.60;99.90
40287;DHT22;25998;46.604;13.610;2022-12-18T10:52:56;2.60;99.90
40287;DHT22;25998;46.604;13.610;2022-12-18T10:56:07;2.60;99.90
40287;DHT22;25998;46.604;13.610;2022-12-18T10:59:18;2.70;99.90
40287;DHT22;25998;46.604;13.610;2022-12-18T11:02:38;2.70;99.90
40287;DHT22;25998;46.604;13.610;2022-12-18T11:06:22;2.70;99.90
40287;DHT22;25998;46.604;13.610;2022-12-18T11:09:39;2.70;99.90
40287;DHT22;25998;46.604;13.610;2022-12-18T11:12:51;2.70;99.90
40287;DHT22;25998;46.604;13.610;2022-12-18T11:16:02;2.80;99.90
40287;DHT22;25998;46.604;13.610;2022-12-18T11:22:36;3.00;99.90
40287;DHT22;25998;46.604;13.610;2022-12-18T11:25:58;3.10;99.90
40287;DHT22;25998;46.604;13.610;2022-12-18T11:29:15;3.20;99.90
40287;DHT22;25998;46.604;13.610;2022-12-18T11:32:35;3.20;99.90
40287;DHT22;25998;46.604;13.610;2022-12-18T11:35:53;3.30;99.90
40287;DHT22;25998;46.604;13.610;2022-12-18T11:39:17;3.30;99.90
40287;DHT22;25998;46.604;13.610;2022-12-18T11:42:50;3.20;99.90
40287;DHT22;25998;46.604;13.610;2022-12-18T11:46:07;3.40;99.90
40287;DHT22;25998;46.604;13.610;2022-12-18T11:49:35;3.50;99.90
40287;DHT22;25998;46.604;13.610;2022-12-18T11:52:46;3.40;99.90
40287;DHT22;25998;46.604;13.610;2022-12-18T12:03:18;3.30;99.90
40287;DHT22;25998;46.604;13.610;2022-12-18T12:07:05;3.10;99.90
40287;DHT22;25998;46.604;13.610;2022-12-18T12:20:51;3.20;99.90
40287;DHT22;25998;46.604;13.610;2022-12-18T12:31:47;3.00;99.90
40287;DHT22;25998;46.604;13.610;2022-12-18T12:38:24;3.00;99.90
40287;DHT22;25998;46.604;13.610;2022-12-18T12:41:37;3.10;99.90
40287;DHT22;25998;46.604;13.610;2022-12-18T12:45:16;3.10;99.90
40287;DHT22;25998;46.604;13.610;2022-12-18T12:48:53;3.20;99.90
40287;DHT22;25998;46.604;13.610;2022-12-18T12:52:27;3.20;99.90
40287;DHT22;25998;46.604;13.610;2022-12-18T12:55:40;3.30;99.90
40287;DHT22;25998;46.604;13.610;2022-12-18T13:05:55;3.50;99.90
40287;DHT22;25998;46.604;13.610;2022-12-18T13:09:06;3.40;99.90
40287;DHT22;25998;46.604;13.610;2022-12-18T13:12:17;3.40;99.90
40287;DHT22;25998;46.604;13.610;2022-12-18T13:15:49;3.30;99.90
40287;DHT22;25998;46.604;13.610;2022-12-18T13:19:22;3.20;99.90
40287;DHT22;25998;46.604;13.610;2022-12-18T13:22:48;3.20;99.90
40287;DHT22;25998;46.604;13.610;2022-12-18T13:29:48;3.10;99.90
40287;DHT22;25998;46.604;13.610;2022-12-18T13:36:30;3.10;99.90
40287;DHT22;25998;46.604;13.610;2022-12-18T13:39:41;3.00;99.90
40287;DHT22;25998;46.604;13.610;2022-12-18T13:42:52;2.90;99.90
40287;DHT22;25998;46.604;13.610;2022-12-18T13:46:48;2.90;99.90
40287;DHT22;25998;46.604;13.610;2022-12-18T13:50:04;2.80;99.90
40287;DHT22;25998;46.604;13.610;2022-12-18T13:53:26;2.90;99.90
40287;DHT22;25998;46.604;13.610;2022-12-18T13:56:44;3.00;99.90
40287;DHT22;25998;46.604;13.610;2022-12-18T13:59:56;3.00;99.90
40287;DHT22;25998;46.604;13.610;2022-12-18T14:03:19;3.10;99.90
40287;DHT22;25998;46.604;13.610;2022-12-18T14:06:30;3.20;99.90
40287;DHT22;25998;46.604;13.610;2022-12-18T14:09:43;3.10;99.90
40287;DHT22;25998;46.604;13.610;2022-12-18T14:13:06;3.20;99.90
40287;DHT22;25998;46.604;13.610;2022-12-18T14:16:19;3.20;99.90
40287;DHT22;25998;46.604;13.610;2022-12-18T14:19:31;3.20;99.90
40287;DHT22;25998;46.604;13.610;2022-12-18T14:22:44;3.10;99.90
40287;DHT22;25998;46.604;13.610;2022-12-18T14:25:56;3.00;99.90
40287;DHT22;25998;46.604;13.610;2022-12-18T14:29:28;3.10;99.90
40287;DHT22;25998;46.604;13.610;2022-12-18T14:32:39;3.10;99.90
40287;DHT22;25998;46.604;13.610;2022-12-18T14:35:55;3.10;99.90
40287;DHT22;25998;46.604;13.610;2022-12-18T14:39:16;3.10;99.90
40287;DHT22;25998;46.604;13.610;2022-12-18T14:42:28;3.10;99.90
40287;DHT22;25998;46.604;13.610;2022-12-18T14:45:41;3.10;99.90
40287;DHT22;25998;46.604;13.610;2022-12-18T14:48:52;3.10;99.90
40287;DHT22;25998;46.604;13.610;2022-12-18T14:52:06;3.10;99.90
40287;DHT22;25998;46.604;13.610;2022-12-18T14:55:26;2.90;99.90
40287;DHT22;25998;46.604;13.610;2022-12-18T14:58:37;2.90;99.90
40287;DHT22;25998;46.604;13.610;2022-12-18T15:05:18;3.00;99.90
40287;DHT22;25998;46.604;13.610;2022-12-18T15:08:37;2.90;99.90
40287;DHT22;25998;46.604;13.610;2022-12-18T15:11:48;2.80;99.90
40287;DHT22;25998;46.604;13.610;2022-12-18T15:14:58;2.50;99.90
40287;DHT22;25998;46.604;13.610;2022-12-18T15:21:23;2.30;99.90
40287;DHT22;25998;46.604;13.610;2022-12-18T15:24:34;2.40;99.90
40287;DHT22;25998;46.604;13.610;2022-12-18T15:27:46;2.30;99.90
40287;DHT22;25998;46.604;13.610;2022-12-18T15:34:24;2.00;99.90
40287;DHT22;25998;46.604;13.610;2022-12-18T15:37:37;1.90;99.90
40287;DHT22;25998;46.604;13.610;2022-12-18T15:40:48;1.90;99.90
40287;DHT22;25998;46.604;13.610;2022-12-18T15:43:59;1.90;99.90
40287;DHT22;25998;46.604;13.610;2022-12-18T15:47:11;2.00;99.90
40287;DHT22;25998;46.604;13.610;2022-12-18T15:50:23;2.00;99.90
40287;DHT22;25998;46.604;13.610;2022-12-18T15:53:34;2.10;99.90
40287;DHT22;25998;46.604;13.610;2022-12-18T15:56:45;2.00;99.90
40287;DHT22;25998;46.604;13.610;2022-12-18T16:00:14;2.10;99.90
40287;DHT22;25998;46.604;13.610;2022-12-18T16:03:25;2.10;99.90
40287;DHT22;25998;46.604;13.610;2022-12-18T16:06:35;2.00;99.90
40287;DHT22;25998;46.604;13.610;2022-12-18T16:09:46;2.00;99.90
40287;DHT22;25998;46.604;13.610;2022-12-18T16:12:57;1.80;99.90
40287;DHT22;25998;46.604;13.610;2022-12-18T16:16:08;1.70;99.90
40287;DHT22;25998;46.604;13.610;2022-12-18T16:19:19;1.60;99.90
40287;DHT22;25998;46.604;13.610;2022-12-18T16:22:31;1.50;99.90
40287;DHT22;25998;46.604;13.610;2022-12-18T16:25:42;1.70;99.90
40287;DHT22;25998;46.604;13.610;2022-12-18T16:28:53;1.70;99.90
40287;DHT22;25998;46.604;13.610;2022-12-18T16:32:04;1.70;99.90
40287;DHT22;25998;46.604;13.610;2022-12-18T16:35:16;1.70;99.90
40287;DHT22;25998;46.604;13.610;2022-12-18T16:38:27;1.80;99.90
40287;DHT22;25998;46.604;13.610;2022-12-18T16:41:38;1.50;99.90
40287;DHT22;25998;46.604;13.610;2022-12-18T16:44:49;1.30;99.90
40287;DHT22;25998;46.604;13.610;2022-12-18T16:48:00;1.30;99.90
40287;DHT22;25998;46.604;13.610;2022-12-18T16:51:11;1.40;99.90
40287;DHT22;25998;46.604;13.610;2022-12-18T16:54:21;1.50;99.90
40287;DHT22;25998;46.604;13.610;2022-12-18T16:57:33;1.50;99.90
40287;DHT22;25998;46.604;13.610;2022-12-18T17:00:43;1.50;99.90
40287;DHT22;25998;46.604;13.610;2022-12-18T17:04:00;1.40;99.90
40287;DHT22;25998;46.604;13.610;2022-12-18T17:07:11;1.40;99.90
40287;DHT22;25998;46.604;13.610;2022-12-18T17:10:22;1.30;99.90
40287;DHT22;25998;46.604;13.610;2022-12-18T17:13:33;1.10;99.90
40287;DHT22;25998;46.604;13.610;2022-12-18T17:16:45;1.10;99.90
40287;DHT22;25998;46.604;13.610;2022-12-18T17:19:56;1.10;99.90
40287;DHT22;25998;46.604;13.610;2022-12-18T17:23:07;1.20;99.90
40287;DHT22;25998;46.604;13.610;2022-12-18T17:26:17;1.20;99.90
40287;DHT22;25998;46.604;13.610;2022-12-18T17:29:28;1.30;99.90
40287;DHT22;25998;46.604;13.610;2022-12-18T17:32:39;1.30;99.90
40287;DHT22;25998;46.604;13.610;2022-12-18T17:35:50;1.20;99.90
40287;DHT22;25998;46.604;13.610;2022-12-18T17:39:03;1.10;99.90
40287;DHT22;25998;46.604;13.610;2022-12-18T17:42:14;1.30;99.90
40287;DHT22;25998;46.604;13.610;2022-12-18T17:45:25;1.40;99.90
40287;DHT22;25998;46.604;13.610;2022-12-18T17:48:36;1.50;99.90
40287;DHT22;25998;46.604;13.610;2022-12-18T17:51:47;1.50;99.90
40287;DHT22;25998;46.604;13.610;2022-12-18T17:54:58;1.40;99.90
40287;DHT22;25998;46.604;13.610;2022-12-18T17:58:09;1.20;99.90
40287;DHT22;25998;46.604;13.610;2022-12-18T18:01:22;1.00;99.90
40287;DHT22;25998;46.604;13.610;2022-12-18T18:04:33;1.20;99.90
40287;DHT22;25998;46.604;13.610;2022-12-18T18:07:44;1.20;99.90
40287;DHT22;25998;46.604;13.610;2022-12-18T18:10:55;1.30;99.90
40287;DHT22;25998;46.604;13.610;2022-12-18T18:14:26;1.30;99.90
40287;DHT22;25998;46.604;13.610;2022-12-18T18:17:37;1.40;99.90
40287;DHT22;25998;46.604;13.610;2022-12-18T18:20:48;1.30;99.90
40287;DHT22;25998;46.604;13.610;2022-12-18T18:24:02;1.30;99.90
40287;DHT22;25998;46.604;13.610;2022-12-18T18:27:13;1.30;99.90
40287;DHT22;25998;46.604;13.610;2022-12-18T18:30:24;1.20;99.90
40287;DHT22;25998;46.604;13.610;2022-12-18T18:33:35;1.20;99.90
40287;DHT22;25998;46.604;13.610;2022-12-18T18:36:46;1.30;99.90
40287;DHT22;25998;46.604;13.610;2022-12-18T18:39:57;1.40;99.90
40287;DHT22;25998;46.604;13.610;2022-12-18T18:43:08;1.40;99.90
40287;DHT22;25998;46.604;13.610;2022-12-18T18:46:19;1.30;99.90
40287;DHT22;25998;46.604;13.610;2022-12-18T18:49:30;1.40;99.90
40287;DHT22;25998;46.604;13.610;2022-12-18T18:52:42;1.40;99.90
40287;DHT22;25998;46.604;13.610;2022-12-18T18:55:56;1.50;99.90
40287;DHT22;25998;46.604;13.610;2022-12-18T18:59:08;1.50;99.90
40287;DHT22;25998;46.604;13.610;2022-12-18T19:02:18;1.50;99.90
40287;DHT22;25998;46.604;13.610;2022-12-18T19:05:32;1.50;99.90
40287;DHT22;25998;46.604;13.610;2022-12-18T19:08:43;1.50;99.90
40287;DHT22;25998;46.604;13.610;2022-12-18T19:11:56;1.50;99.90
40287;DHT22;25998;46.604;13.610;2022-12-18T19:15:25;1.30;99.90
40287;DHT22;25998;46.604;13.610;2022-12-18T19:18:36;1.10;99.90
40287;DHT22;25998;46.604;13.610;2022-12-18T19:21:47;1.20;99.90
40287;DHT22;25998;46.604;13.610;2022-12-18T19:24:59;1.30;99.90
40287;DHT22;25998;46.604;13.610;2022-12-18T19:28:10;1.20;99.90
40287;DHT22;25998;46.604;13.610;2022-12-18T19:31:21;1.20;99.90
40287;DHT22;25998;46.604;13.610;2022-12-18T19:34:32;1.20;99.90
40287;DHT22;25998;46.604;13.610;2022-12-18T19:37:43;1.10;99.90
40287;DHT22;25998;46.604;13.610;2022-12-18T19:40:54;1.20;99.90
40287;DHT22;25998;46.604;13.610;2022-12-18T19:44:06;1.30;99.90
40287;DHT22;25998;46.604;13.610;2022-12-18T19:47:17;1.20;99.90
40287;DHT22;25998;46.604;13.610;2022-12-18T19:50:27;1.10;99.90
40287;DHT22;25998;46.604;13.610;2022-12-18T19:53:38;1.00;99.90
40287;DHT22;25998;46.604;13.610;2022-12-18T19:56:49;1.10;99.90
40287;DHT22;25998;46.604;13.610;2022-12-18T20:00:03;1.20;99.90
40287;DHT22;25998;46.604;13.610;2022-12-18T20:03:14;1.20;99.90
40287;DHT22;25998;46.604;13.610;2022-12-18T20:09:38;1.40;99.90
40287;DHT22;25998;46.604;13.610;2022-12-18T20:12:49;1.40;99.90
40287;DHT22;25998;46.604;13.610;2022-12-18T20:16:00;1.30;99.90
40287;DHT22;25998;46.604;13.610;2022-12-18T20:19:11;1.30;99.90
40287;DHT22;25998;46.604;13.610;2022-12-18T20:22:22;1.20;99.90
40287;DHT22;25998;46.604;13.610;2022-12-18T20:25:33;1.20;99.90
40287;DHT22;25998;46.604;13.610;2022-12-18T20:28:44;1.20;99.90
40287;DHT22;25998;46.604;13.610;2022-12-18T20:31:55;1.20;99.90
40287;DHT22;25998;46.604;13.610;2022-12-18T20:35:06;1.10;99.90
40287;DHT22;25998;46.604;13.610;2022-12-18T20:38:17;1.20;99.90
40287;DHT22;25998;46.604;13.610;2022-12-18T20:41:27;1.20;99.90
40287;DHT22;25998;46.604;13.610;2022-12-18T20:44:38;1.00;99.90
40287;DHT22;25998;46.604;13.610;2022-12-18T20:47:52;1.00;99.90
40287;DHT22;25998;46.604;13.610;2022-12-18T20:51:08;1.10;99.90
40287;DHT22;25998;46.604;13.610;2022-12-18T20:54:20;1.00;99.90
40287;DHT22;25998;46.604;13.610;2022-12-18T20:57:32;1.10;99.90
40287;DHT22;25998;46.604;13.610;2022-12-18T21:00:43;1.00;99.90
40287;DHT22;25998;46.604;13.610;2022-12-18T21:03:54;1.20;99.90
40287;DHT22;25998;46.604;13.610;2022-12-18T21:07:05;1.20;99.90
40287;DHT22;25998;46.604;13.610;2022-12-18T21:10:16;1.20;99.90
40287;DHT22;25998;46.604;13.610;2022-12-18T21:13:27;1.10;99.90
40287;DHT22;25998;46.604;13.610;2022-12-18T21:16:38;1.10;99.90
40287;DHT22;25998;46.604;13.610;2022-12-18T21:19:49;1.00;99.90
40287;DHT22;25998;46.604;13.610;2022-12-18T21:23:00;0.90;99.90
40287;DHT22;25998;46.604;13.610;2022-12-18T21:26:23;0.70;99.90
40287;DHT22;25998;46.604;13.610;2022-12-18T21:29:35;0.60;99.90
40287;DHT22;25998;46.604;13.610;2022-12-18T21:32:46;0.60;99.90
40287;DHT22;25998;46.604;13.610;2022-12-18T21:35:57;0.60;99.90
40287;DHT22;25998;46.604;13.610;2022-12-18T21:39:08;0.60;99.90
40287;DHT22;25998;46.604;13.610;2022-12-18T21:42:19;0.80;99.90
40287;DHT22;25998;46.604;13.610;2022-12-18T21:45:48;0.70;99.90
40287;DHT22;25998;46.604;13.610;2022-12-18T21:48:59;0.60;99.90
40287;DHT22;25998;46.604;13.610;2022-12-18T21:52:10;0.50;99.90
40287;DHT22;25998;46.604;13.610;2022-12-18T21:55:21;0.60;99.90
40287;DHT22;25998;46.604;13.610;2022-12-18T21:58:32;0.50;99.90
40287;DHT22;25998;46.604;13.610;2022-12-18T22:01:43;0.40;99.90
40287;DHT22;25998;46.604;13.610;2022-12-18T22:04:54;0.40;99.90